Time;durP1;ratioP1;P1;durP2;ratioP2;P2;SDS_P1;SDS_P2;PMS_P1;PMS_P2;Temp;Humidity;BMP_temperature;BMP_pressure;BME280_temperature;BME280_humidity;BME280_pressure;Samples;Min_cycle;Max_cycle;Signal;HPM_P1;HPM_P2
2021/07/18 00:00:53;;;;;;;;;;;22.70;50.40;;;;;;1568908;74;721;-60
2021/07/18 00:02:55;;;;;;;;;;;22.80;50.30;;;;;;1570443;74;1136;-60
2021/07/18 00:04:57;;;;;;;;;;;22.80;50.40;;;;;;1568299;76;654;-59
2021/07/18 00:06:59;;;;;;;;;;;22.70;50.40;;;;;;1567103;75;750;-58
2021/07/18 00:09:01;;;;;;;;;;;22.80;50.40;;;;;;1563011;74;780;-58
2021/07/18 00:11:03;;;;;;;;;;;22.80;50.50;;;;;;1562176;74;1926;-58
2021/07/18 00:13:05;;;;;;;;;;;22.80;50.40;;;;;;1567213;74;1165;-60
2021/07/18 00:15:07;;;;;;;;;;;22.80;50.40;;;;;;1575249;74;714;-60
2021/07/18 00:17:09;;;;;;;;;;;22.70;50.40;;;;;;1567899;74;809;-61
2021/07/18 00:19:11;;;;;;;;;;;22.70;50.40;;;;;;1576560;74;703;-60
2021/07/18 00:21:13;;;;;;;;;;;22.70;50.40;;;;;;1569180;74;751;-61
2021/07/18 00:23:15;;;;;;;;;;;22.70;50.40;;;;;;1568076;76;1136;-58
2021/07/18 00:25:17;;;;;;;;;;;22.70;50.40;;;;;;1577198;74;798;-61
2021/07/18 00:27:19;;;;;;;;;;;22.80;50.40;;;;;;1569646;74;680;-61
2021/07/18 00:29:21;;;;;;;;;;;22.80;50.40;;;;;;1580593;74;729;-60
2021/07/18 00:31:23;;;;;;;;;;;22.80;50.40;;;;;;1586635;74;1950;-60
2021/07/18 00:33:24;;;;;;;;;;;22.70;50.40;;;;;;1578238;73;698;-58
2021/07/18 00:35:26;;;;;;;;;;;22.70;50.30;;;;;;1569889;74;858;-58
2021/07/18 00:37:28;;;;;;;;;;;22.70;50.40;;;;;;1570751;74;790;-58
2021/07/18 00:39:30;;;;;;;;;;;22.70;50.40;;;;;;1564903;76;709;-59
2021/07/18 00:41:32;;;;;;;;;;;22.80;50.40;;;;;;1576563;74;1136;-60
2021/07/18 00:43:34;;;;;;;;;;;22.70;50.40;;;;;;1566618;74;696;-58
2021/07/18 00:45:36;;;;;;;;;;;22.80;50.40;;;;;;1589205;74;784;-60
2021/07/18 00:47:38;;;;;;;;;;;22.80;50.40;;;;;;1568714;74;790;-60
2021/07/18 00:49:40;;;;;;;;;;;22.70;50.40;;;;;;1567020;74;678;-59
2021/07/18 00:51:42;;;;;;;;;;;22.80;50.40;;;;;;1567480;74;1957;-60
2021/07/18 00:53:44;;;;;;;;;;;22.80;50.40;;;;;;1568642;74;715;-58
2021/07/18 00:55:46;;;;;;;;;;;22.70;50.40;;;;;;1567503;76;772;-58
2021/07/18 00:57:48;;;;;;;;;;;22.70;50.40;;;;;;1562135;74;758;-57
2021/07/18 00:59:50;;;;;;;;;;;22.70;50.40;;;;;;1567835;76;707;-60
2021/07/18 01:01:52;;;;;;;;;;;22.70;50.40;;;;;;1577261;73;1106;-61
2021/07/18 01:03:54;;;;;;;;;;;22.80;50.40;;;;;;1580435;74;711;-61
2021/07/18 01:05:56;;;;;;;;;;;22.70;50.40;;;;;;1562480;74;832;-61
2021/07/18 01:07:58;;;;;;;;;;;22.80;50.40;;;;;;1563183;76;711;-60
2021/07/18 01:10:00;;;;;;;;;;;22.70;50.50;;;;;;1567345;75;734;-60
2021/07/18 01:12:02;;;;;;;;;;;22.80;50.40;;;;;;1570905;76;1970;-58
2021/07/18 01:14:04;;;;;;;;;;;22.70;50.40;;;;;;1570992;74;720;-60
2021/07/18 01:16:06;;;;;;;;;;;22.80;50.40;;;;;;1572820;74;772;-61
2021/07/18 01:18:11;;;;;;;;;;;22.70;50.40;;;;;;1576998;74;665;-58
2021/07/18 01:20:13;;;;;;;;;;;22.70;50.40;;;;;;1555137;74;227829;-66
2021/07/18 01:22:15;;;;;;;;;;;22.80;50.40;;;;;;1612711;73;698;-74
2021/07/18 01:24:17;;;;;;;;;;;22.80;50.40;;;;;;1608483;73;699;-71
2021/07/18 01:26:19;;;;;;;;;;;22.70;50.40;;;;;;1608362;73;703;-72
2021/07/18 01:28:21;;;;;;;;;;;22.80;50.40;;;;;;1612728;73;701;-71
2021/07/18 01:30:22;;;;;;;;;;;22.70;50.40;;;;;;1612887;73;1203;-71
2021/07/18 01:32:24;;;;;;;;;;;22.70;50.50;;;;;;1612020;73;1940;-72
2021/07/18 01:34:26;;;;;;;;;;;22.70;50.40;;;;;;1610228;73;729;-72
2021/07/18 01:36:28;;;;;;;;;;;22.80;50.50;;;;;;1606769;73;716;-73
2021/07/18 01:38:30;;;;;;;;;;;22.70;50.40;;;;;;1604067;73;805;-71
2021/07/18 01:40:32;;;;;;;;;;;22.70;50.40;;;;;;1606923;73;1173;-71
2021/07/18 01:42:34;;;;;;;;;;;22.80;50.50;;;;;;1606467;73;699;-71
2021/07/18 01:44:35;;;;;;;;;;;22.70;50.40;;;;;;1602488;73;761;-72
2021/07/18 01:46:37;;;;;;;;;;;22.70;50.50;;;;;;1600492;73;679;-72
2021/07/18 01:48:40;;;;;;;;;;;22.80;50.40;;;;;;1612826;73;681;-73
2021/07/18 01:50:42;;;;;;;;;;;22.70;50.40;;;;;;1602366;73;1155;-72
2021/07/18 01:52:43;;;;;;;;;;;22.80;50.40;;;;;;1601830;73;1936;-72
2021/07/18 01:54:45;;;;;;;;;;;22.80;50.40;;;;;;1612026;73;728;-72
2021/07/18 01:56:47;;;;;;;;;;;22.80;50.30;;;;;;1612961;73;719;-74
2021/07/18 01:58:50;;;;;;;;;;;22.70;50.40;;;;;;1610983;73;719;-72
2021/07/18 02:00:52;;;;;;;;;;;22.70;50.40;;;;;;1612766;73;1087;-68
2021/07/18 02:02:54;;;;;;;;;;;22.80;50.40;;;;;;1604162;73;716;-73
2021/07/18 02:04:56;;;;;;;;;;;22.70;50.30;;;;;;1611719;73;716;-72
2021/07/18 02:06:57;;;;;;;;;;;22.70;50.30;;;;;;1607420;73;710;-72
2021/07/18 02:09:00;;;;;;;;;;;22.70;50.40;;;;;;1599044;73;734;-71
2021/07/18 02:11:02;;;;;;;;;;;22.80;50.40;;;;;;1602458;73;1105;-71
2021/07/18 02:13:05;;;;;;;;;;;22.70;50.40;;;;;;1612678;73;1929;-72
2021/07/18 02:15:10;;;;;;;;;;;22.70;50.40;;;;;;1600071;73;691;-72
2021/07/18 02:17:12;;;;;;;;;;;22.70;50.40;;;;;;1606102;73;720;-72
2021/07/18 02:19:14;;;;;;;;;;;22.80;50.40;;;;;;1615492;73;720;-72
2021/07/18 02:21:16;;;;;;;;;;;22.70;50.40;;;;;;1595469;73;1167;-74
2021/07/18 02:23:20;;;;;;;;;;;22.70;50.50;;;;;;1609465;73;691;-72
2021/07/18 02:25:25;;;;;;;;;;;22.70;50.40;;;;;;1612657;73;1617;-72
2021/07/18 02:27:27;;;;;;;;;;;22.80;50.40;;;;;;1613414;73;687;-72
2021/07/18 02:29:29;;;;;;;;;;;22.70;50.40;;;;;;1609746;73;707;-72
2021/07/18 02:31:31;;;;;;;;;;;22.80;50.40;;;;;;1612794;73;1934;-72
2021/07/18 02:33:32;;;;;;;;;;;22.80;50.40;;;;;;1609752;73;696;-72
2021/07/18 02:35:34;;;;;;;;;;;22.70;50.50;;;;;;1612877;73;706;-72
2021/07/18 02:37:36;;;;;;;;;;;22.60;50.30;;;;;;1608884;73;662;-72
2021/07/18 02:39:38;;;;;;;;;;;22.80;50.40;;;;;;1612949;73;700;-74
2021/07/18 02:41:40;;;;;;;;;;;22.80;50.40;;;;;;1606017;73;1154;-72
2021/07/18 02:43:42;;;;;;;;;;;22.70;50.40;;;;;;1601057;73;728;-72
2021/07/18 02:45:44;;;;;;;;;;;22.70;50.40;;;;;;1610825;73;713;-72
2021/07/18 02:47:46;;;;;;;;;;;22.70;50.40;;;;;;1612949;73;771;-72
2021/07/18 02:49:48;;;;;;;;;;;22.80;50.40;;;;;;1611078;73;704;-72
2021/07/18 02:51:49;;;;;;;;;;;22.70;50.40;;;;;;1611449;73;1938;-73
2021/07/18 02:53:51;;;;;;;;;;;22.70;50.40;;;;;;1612873;73;652;-73
2021/07/18 02:55:53;;;;;;;;;;;22.70;50.40;;;;;;1612906;73;716;-72
2021/07/18 02:57:55;;;;;;;;;;;22.70;50.50;;;;;;1612416;73;806;-72
2021/07/18 02:59:57;;;;;;;;;;;22.70;50.40;;;;;;1616587;73;738;-72
2021/07/18 03:02:00;;;;;;;;;;;22.70;50.40;;;;;;1609479;73;1544;-72
2021/07/18 03:04:01;;;;;;;;;;;22.80;50.40;;;;;;1612896;73;732;-74
2021/07/18 03:06:03;;;;;;;;;;;22.70;50.40;;;;;;1612903;73;729;-72
2021/07/18 03:08:05;;;;;;;;;;;22.80;50.40;;;;;;1609069;73;703;-72
2021/07/18 03:10:08;;;;;;;;;;;22.70;50.50;;;;;;1611072;73;1040;-72
2021/07/18 03:12:10;;;;;;;;;;;22.70;50.50;;;;;;1612708;73;1918;-72
2021/07/18 03:14:11;;;;;;;;;;;22.70;50.50;;;;;;1609003;73;735;-72
2021/07/18 03:16:13;;;;;;;;;;;22.70;50.40;;;;;;1606520;73;780;-73
2021/07/18 03:18:15;;;;;;;;;;;22.80;50.50;;;;;;1606701;73;777;-72
2021/07/18 03:20:17;;;;;;;;;;;22.70;50.40;;;;;;1615188;73;1239;-71
2021/07/18 03:22:20;;;;;;;;;;;22.70;50.40;;;;;;1602369;72;800;-72
2021/07/18 03:24:22;;;;;;;;;;;22.70;50.40;;;;;;1607490;73;680;-73
2021/07/18 03:26:24;;;;;;;;;;;22.70;50.40;;;;;;1609102;73;718;-72
2021/07/18 03:28:25;;;;;;;;;;;22.70;50.50;;;;;;1602371;73;720;-72
2021/07/18 03:30:27;;;;;;;;;;;22.80;50.50;;;;;;1602042;73;1165;-74
2021/07/18 03:32:29;;;;;;;;;;;22.70;50.50;;;;;;1605310;73;1923;-72
2021/07/18 03:34:31;;;;;;;;;;;22.80;50.40;;;;;;1612451;73;759;-72
2021/07/18 03:36:33;;;;;;;;;;;22.70;50.40;;;;;;1596751;73;768;-72
2021/07/18 03:38:35;;;;;;;;;;;22.80;50.40;;;;;;1611537;73;724;-72
2021/07/18 03:40:37;;;;;;;;;;;22.70;50.50;;;;;;1612853;73;1150;-72
2021/07/18 03:42:39;;;;;;;;;;;22.80;50.50;;;;;;1601703;73;659;-72
2021/07/18 03:44:40;;;;;;;;;;;22.80;50.50;;;;;;1603274;73;714;-73
2021/07/18 03:46:42;;;;;;;;;;;22.80;50.40;;;;;;1606038;73;700;-73
2021/07/18 03:48:44;;;;;;;;;;;22.70;50.50;;;;;;1612875;73;716;-72
2021/07/18 03:50:47;;;;;;;;;;;22.80;50.50;;;;;;1610346;73;1120;-72
2021/07/18 03:52:50;;;;;;;;;;;22.80;50.50;;;;;;1609604;73;1909;-72
2021/07/18 03:54:51;;;;;;;;;;;22.70;50.50;;;;;;1601244;73;717;-72
2021/07/18 03:56:53;;;;;;;;;;;22.70;50.40;;;;;;1605610;73;680;-72
2021/07/18 03:58:55;;;;;;;;;;;22.70;50.40;;;;;;1612882;73;706;-73
2021/07/18 04:00:57;;;;;;;;;;;22.70;50.40;;;;;;1612803;73;1158;-73
2021/07/18 04:02:59;;;;;;;;;;;22.70;50.50;;;;;;1612001;73;795;-72
2021/07/18 04:05:01;;;;;;;;;;;22.70;50.40;;;;;;1604063;73;708;-72
2021/07/18 04:07:03;;;;;;;;;;;22.70;50.40;;;;;;1608613;73;695;-72
2021/07/18 04:09:05;;;;;;;;;;;22.70;50.50;;;;;;1612860;73;754;-74
2021/07/18 04:11:07;;;;;;;;;;;22.70;50.50;;;;;;1612839;73;1104;-72
2021/07/18 04:13:09;;;;;;;;;;;22.70;50.50;;;;;;1607646;73;1934;-72
2021/07/18 04:15:11;;;;;;;;;;;22.70;50.50;;;;;;1615945;73;699;-72
2021/07/18 04:17:13;;;;;;;;;;;22.70;50.50;;;;;;1612951;73;728;-72
2021/07/18 04:19:15;;;;;;;;;;;22.80;50.50;;;;;;1611345;73;775;-72
2021/07/18 04:21:19;;;;;;;;;;;22.70;50.50;;;;;;1615030;73;1127;-72
2021/07/18 04:23:21;;;;;;;;;;;22.70;50.50;;;;;;1602048;73;951;-73
2021/07/18 04:25:22;;;;;;;;;;;22.80;50.50;;;;;;1612937;73;716;-72
2021/07/18 04:27:24;;;;;;;;;;;22.70;50.50;;;;;;1612898;73;779;-73
2021/07/18 04:29:26;;;;;;;;;;;22.60;50.40;;;;;;1608217;73;791;-72
2021/07/18 04:31:28;;;;;;;;;;;22.80;50.50;;;;;;1609743;73;1140;-72
2021/07/18 04:33:30;;;;;;;;;;;22.80;50.50;;;;;;1608005;73;1942;-72
2021/07/18 04:35:32;;;;;;;;;;;22.70;50.50;;;;;;1612174;73;795;-72
2021/07/18 04:37:35;;;;;;;;;;;22.80;50.50;;;;;;1612855;73;716;-73
2021/07/18 04:39:37;;;;;;;;;;;22.80;50.50;;;;;;1612876;73;795;-72
2021/07/18 04:41:39;;;;;;;;;;;22.70;50.50;;;;;;1612810;73;1140;-75
2021/07/18 04:43:41;;;;;;;;;;;22.70;50.50;;;;;;1607346;73;601;-72
2021/07/18 04:45:43;;;;;;;;;;;22.70;50.50;;;;;;1610658;73;721;-71
2021/07/18 04:47:50;;;;;;;;;;;22.70;50.50;;;;;;1609455;73;604;-70
2021/07/18 04:49:52;;;;;;;;;;;22.70;50.50;;;;;;1604004;73;726;-71
2021/07/18 04:51:54;;;;;;;;;;;22.60;50.40;;;;;;1604198;73;1126;-72
2021/07/18 04:53:56;;;;;;;;;;;22.60;50.40;;;;;;1612787;73;1940;-72
2021/07/18 04:55:58;;;;;;;;;;;22.60;50.40;;;;;;1612889;73;724;-72
2021/07/18 04:58:00;;;;;;;;;;;22.80;50.50;;;;;;1609423;73;814;-72
2021/07/18 05:00:03;;;;;;;;;;;22.80;50.50;;;;;;1606389;73;1143;-72
2021/07/18 05:02:05;;;;;;;;;;;22.70;50.40;;;;;;1608196;73;1114;-72
2021/07/18 05:04:07;;;;;;;;;;;22.70;50.50;;;;;;1612954;73;692;-72
2021/07/18 05:06:09;;;;;;;;;;;22.70;50.50;;;;;;1612898;73;712;-72
2021/07/18 05:08:11;;;;;;;;;;;22.70;50.50;;;;;;1610222;73;782;-72
2021/07/18 05:10:13;;;;;;;;;;;22.80;50.40;;;;;;1610184;73;1176;-72
2021/07/18 05:12:15;;;;;;;;;;;22.70;50.50;;;;;;1612781;73;700;-72
2021/07/18 05:14:17;;;;;;;;;;;22.60;50.40;;;;;;1609400;73;1940;-72
2021/07/18 05:16:19;;;;;;;;;;;22.80;50.50;;;;;;1605289;73;683;-71
2021/07/18 05:18:21;;;;;;;;;;;22.70;50.40;;;;;;1613071;73;729;-72
2021/07/18 05:20:23;;;;;;;;;;;22.80;50.40;;;;;;1610274;73;1064;-72
2021/07/18 05:22:25;;;;;;;;;;;22.70;50.40;;;;;;1612785;73;724;-73
2021/07/18 05:24:27;;;;;;;;;;;22.70;50.40;;;;;;1608456;73;772;-72
2021/07/18 05:26:29;;;;;;;;;;;22.80;50.50;;;;;;1612853;73;747;-73
2021/07/18 05:28:31;;;;;;;;;;;22.70;50.50;;;;;;1612386;73;742;-72
2021/07/18 05:30:33;;;;;;;;;;;22.70;50.50;;;;;;1612715;73;1170;-72
2021/07/18 05:32:35;;;;;;;;;;;22.70;50.50;;;;;;1612795;73;1932;-71
2021/07/18 05:34:38;;;;;;;;;;;22.70;50.50;;;;;;1612887;73;721;-72
2021/07/18 05:36:40;;;;;;;;;;;22.80;50.50;;;;;;1606465;73;711;-73
2021/07/18 05:38:42;;;;;;;;;;;22.70;50.50;;;;;;1612080;73;723;-73
2021/07/18 05:40:43;;;;;;;;;;;22.70;50.40;;;;;;1612481;73;1144;-71
2021/07/18 05:42:45;;;;;;;;;;;22.70;50.40;;;;;;1605844;73;735;-72
2021/07/18 05:44:47;;;;;;;;;;;22.70;50.40;;;;;;1607861;73;727;-72
2021/07/18 05:46:49;;;;;;;;;;;22.70;50.40;;;;;;1606198;73;690;-72
2021/07/18 05:48:51;;;;;;;;;;;22.80;50.40;;;;;;1608982;73;693;-72
2021/07/18 05:50:53;;;;;;;;;;;22.70;50.40;;;;;;1610989;73;1132;-72
2021/07/18 05:52:55;;;;;;;;;;;22.70;50.40;;;;;;1612627;73;1931;-73
2021/07/18 05:54:57;;;;;;;;;;;22.70;50.40;;;;;;1612926;73;771;-72
2021/07/18 05:56:58;;;;;;;;;;;22.70;50.50;;;;;;1604742;73;786;-72
2021/07/18 05:59:00;;;;;;;;;;;22.70;50.50;;;;;;1612860;73;723;-72
2021/07/18 06:01:02;;;;;;;;;;;22.70;50.50;;;;;;1612809;73;1151;-72
2021/07/18 06:03:04;;;;;;;;;;;22.70;50.50;;;;;;1612494;73;1082;-72
2021/07/18 06:05:06;;;;;;;;;;;22.70;50.50;;;;;;1607348;73;716;-72
2021/07/18 06:07:08;;;;;;;;;;;22.70;50.50;;;;;;1603780;73;692;-72
2021/07/18 06:09:10;;;;;;;;;;;22.80;50.50;;;;;;1612872;73;791;-72
2021/07/18 06:11:12;;;;;;;;;;;22.60;50.40;;;;;;1612774;73;1194;-73
2021/07/18 06:13:14;;;;;;;;;;;22.70;50.40;;;;;;1613962;73;1936;-72
2021/07/18 06:15:16;;;;;;;;;;;22.70;50.40;;;;;;1602854;73;584;-73
2021/07/18 06:17:18;;;;;;;;;;;22.70;50.50;;;;;;1612946;73;715;-73
2021/07/18 06:19:20;;;;;;;;;;;22.70;50.50;;;;;;1614131;73;719;-71
2021/07/18 06:21:22;;;;;;;;;;;22.60;50.40;;;;;;1615359;73;1132;-71
2021/07/18 06:23:24;;;;;;;;;;;22.70;50.50;;;;;;1603768;73;721;-70
2021/07/18 06:25:26;;;;;;;;;;;22.70;50.40;;;;;;1605962;73;685;-72
2021/07/18 06:27:27;;;;;;;;;;;22.80;50.50;;;;;;1612883;73;755;-71
2021/07/18 06:29:30;;;;;;;;;;;22.70;50.50;;;;;;1612784;73;644;-71
2021/07/18 06:31:32;;;;;;;;;;;22.80;50.50;;;;;;1610019;73;1187;-72
2021/07/18 06:33:34;;;;;;;;;;;22.70;50.50;;;;;;1605073;73;1936;-71
2021/07/18 06:35:35;;;;;;;;;;;22.70;50.50;;;;;;1610242;73;724;-72
2021/07/18 06:37:37;;;;;;;;;;;22.80;50.50;;;;;;1612918;73;736;-71
2021/07/18 06:39:39;;;;;;;;;;;22.70;50.50;;;;;;1612788;73;721;-70
2021/07/18 06:41:41;;;;;;;;;;;22.70;50.50;;;;;;1612864;73;1115;-68
2021/07/18 06:43:43;;;;;;;;;;;22.70;50.50;;;;;;1603845;73;1062;-71
2021/07/18 06:45:45;;;;;;;;;;;22.70;50.50;;;;;;1612830;73;692;-71
2021/07/18 06:47:47;;;;;;;;;;;22.80;50.50;;;;;;1612743;73;814;-71
2021/07/18 06:49:49;;;;;;;;;;;22.70;50.50;;;;;;1609883;73;676;-72
2021/07/18 06:51:50;;;;;;;;;;;22.60;50.40;;;;;;1611187;73;1180;-71
2021/07/18 06:53:52;;;;;;;;;;;22.60;50.40;;;;;;1612793;73;1944;-73
2021/07/18 06:55:54;;;;;;;;;;;22.70;50.50;;;;;;1612879;73;712;-71
2021/07/18 06:57:56;;;;;;;;;;;22.70;50.50;;;;;;1612396;73;776;-71
2021/07/18 06:59:58;;;;;;;;;;;22.70;50.50;;;;;;1612835;73;842;-71
2021/07/18 07:02:00;;;;;;;;;;;22.70;50.40;;;;;;1608781;73;1056;-71
2021/07/18 07:04:02;;;;;;;;;;;22.70;50.50;;;;;;1610867;73;666;-72
2021/07/18 07:06:04;;;;;;;;;;;22.70;50.50;;;;;;1612827;73;711;-71
2021/07/18 07:08:06;;;;;;;;;;;22.70;50.40;;;;;;1614054;73;706;-72
2021/07/18 07:10:08;;;;;;;;;;;22.70;50.50;;;;;;1612763;73;1161;-71
2021/07/18 07:12:10;;;;;;;;;;;22.70;50.50;;;;;;1608708;73;712;-72
2021/07/18 07:14:12;;;;;;;;;;;22.70;50.40;;;;;;1607931;73;1935;-71
2021/07/18 07:16:13;;;;;;;;;;;22.60;50.30;;;;;;1612925;73;711;-71
2021/07/18 07:18:15;;;;;;;;;;;22.70;50.50;;;;;;1611974;73;706;-71
2021/07/18 07:20:17;;;;;;;;;;;22.70;50.40;;;;;;1611418;73;1096;-71
2021/07/18 07:22:19;;;;;;;;;;;22.70;50.30;;;;;;1613365;73;763;-71
2021/07/18 07:24:21;;;;;;;;;;;22.80;50.40;;;;;;1631140;71;2112;-68
2021/07/18 07:26:23;;;;;;;;;;;22.70;50.40;;;;;;1662039;71;796;-68
2021/07/18 07:28:25;;;;;;;;;;;22.70;50.50;;;;;;1645086;71;740;-68
2021/07/18 07:30:27;;;;;;;;;;;22.70;50.50;;;;;;1640220;71;789;-68
2021/07/18 07:32:29;;;;;;;;;;;22.80;50.40;;;;;;1641425;71;781;-68
2021/07/18 07:34:31;;;;;;;;;;;22.70;50.50;;;;;;1626505;71;1948;-68
2021/07/18 07:36:32;;;;;;;;;;;22.70;50.50;;;;;;1660405;71;740;-68
2021/07/18 07:38:34;;;;;;;;;;;22.70;50.40;;;;;;1657556;71;717;-69
2021/07/18 07:40:36;;;;;;;;;;;22.80;50.50;;;;;;1643810;71;756;-68
2021/07/18 07:42:38;;;;;;;;;;;22.70;50.50;;;;;;1651332;71;769;-68
2021/07/18 07:44:40;;;;;;;;;;;22.80;50.50;;;;;;1652896;71;1117;-68
2021/07/18 07:46:42;;;;;;;;;;;22.70;50.50;;;;;;1653864;71;740;-69
2021/07/18 07:48:44;;;;;;;;;;;22.70;50.50;;;;;;1657622;71;679;-69
2021/07/18 07:50:46;;;;;;;;;;;22.70;50.50;;;;;;1647148;71;800;-68
2021/07/18 07:52:48;;;;;;;;;;;22.70;50.50;;;;;;1656138;71;702;-68
2021/07/18 07:54:50;;;;;;;;;;;22.60;50.40;;;;;;1654624;70;1931;-67
2021/07/18 07:56:51;;;;;;;;;;;22.80;50.50;;;;;;1652582;71;673;-68
2021/07/18 07:58:53;;;;;;;;;;;22.70;50.50;;;;;;1657687;71;784;-68
2021/07/18 08:00:55;;;;;;;;;;;22.70;50.50;;;;;;1655323;71;750;-68
2021/07/18 08:02:57;;;;;;;;;;;22.70;50.50;;;;;;1653332;71;1160;-68
2021/07/18 08:04:59;;;;;;;;;;;22.80;50.50;;;;;;1657913;71;664;-68
2021/07/18 08:07:01;;;;;;;;;;;22.80;50.50;;;;;;1649288;71;738;-67
2021/07/18 08:09:03;;;;;;;;;;;22.70;50.40;;;;;;1651795;71;799;-67
2021/07/18 08:11:05;;;;;;;;;;;22.70;50.50;;;;;;1655635;71;748;-67
2021/07/18 08:13:07;;;;;;;;;;;22.70;50.50;;;;;;1652602;71;1144;-67
2021/07/18 08:15:09;;;;;;;;;;;22.60;50.40;;;;;;1655331;71;1945;-67
2021/07/18 08:17:14;;;;;;;;;;;22.80;50.40;;;;;;1649683;71;761;-67
2021/07/18 08:19:14;;;;;;;;;;;22.60;50.30;;;;;;1657056;71;1547;-67
2021/07/18 08:21:16;;;;;;;;;;;22.70;50.50;;;;;;1655650;71;762;-67
2021/07/18 08:23:18;;;;;;;;;;;22.70;50.40;;;;;;1654438;71;1156;-68
2021/07/18 08:25:20;;;;;;;;;;;22.70;50.40;;;;;;1652430;71;753;-67
2021/07/18 08:27:22;;;;;;;;;;;22.60;50.40;;;;;;1659017;71;813;-69
2021/07/18 08:29:24;;;;;;;;;;;22.70;50.50;;;;;;1655200;71;786;-68
2021/07/18 08:31:26;;;;;;;;;;;22.70;50.50;;;;;;1652301;71;772;-67
2021/07/18 08:33:28;;;;;;;;;;;22.60;50.40;;;;;;1650149;70;1177;-68
2021/07/18 08:35:30;;;;;;;;;;;22.70;50.50;;;;;;1653871;71;1920;-68
2021/07/18 08:37:32;;;;;;;;;;;22.60;50.40;;;;;;1640281;71;686;-68
2021/07/18 08:39:33;;;;;;;;;;;22.70;50.50;;;;;;1660348;71;758;-68
2021/07/18 08:41:37;;;;;;;;;;;22.80;50.50;;;;;;1653942;71;769;-68
2021/07/18 08:43:39;;;;;;;;;;;22.70;50.50;;;;;;1655399;70;1394;-68
2021/07/18 08:45:41;;;;;;;;;;;22.70;50.50;;;;;;1653503;71;721;-68
2021/07/18 08:47:43;;;;;;;;;;;22.70;50.40;;;;;;1653188;71;718;-68
2021/07/18 08:49:45;;;;;;;;;;;22.70;50.40;;;;;;1650997;71;709;-68
2021/07/18 08:51:46;;;;;;;;;;;22.70;50.40;;;;;;1657386;71;771;-66
2021/07/18 08:53:50;;;;;;;;;;;22.80;50.50;;;;;;1643573;71;1947;-68
2021/07/18 08:55:52;;;;;;;;;;;22.70;50.50;;;;;;1641265;71;722;-68
2021/07/18 08:57:53;;;;;;;;;;;22.60;50.40;;;;;;1655517;71;737;-68
2021/07/18 08:59:55;;;;;;;;;;;22.60;50.40;;;;;;1653328;71;718;-68
2021/07/18 09:01:57;;;;;;;;;;;22.80;50.40;;;;;;1651162;71;712;-68
2021/07/18 09:03:59;;;;;;;;;;;22.70;50.40;;;;;;1654722;70;1135;-67
2021/07/18 09:06:07;;;;;;;;;;;22.70;50.50;;;;;;1652737;71;778;-68
2021/07/18 09:08:08;;;;;;;;;;;22.60;50.30;;;;;;1661400;71;2087;-67
2021/07/18 09:10:11;;;;;;;;;;;22.70;50.40;;;;;;1654854;71;748;-68
2021/07/18 09:12:13;;;;;;;;;;;22.70;50.40;;;;;;1646295;71;776;-68
2021/07/18 09:14:15;;;;;;;;;;;22.70;50.50;;;;;;1653654;70;1958;-68
2021/07/18 09:16:16;;;;;;;;;;;22.70;50.50;;;;;;1635188;71;738;-68
2021/07/18 09:18:19;;;;;;;;;;;22.60;50.40;;;;;;1629722;72;786;-68
2021/07/18 09:20:21;;;;;;;;;;;22.70;50.40;;;;;;1650536;71;724;-68
2021/07/18 09:22:23;;;;;;;;;;;22.60;50.30;;;;;;1652810;71;763;-68
2021/07/18 09:24:26;;;;;;;;;;;22.80;50.40;;;;;;1650128;71;1117;-68
2021/07/18 09:26:28;;;;;;;;;;;22.70;50.40;;;;;;1650434;72;710;-68
2021/07/18 09:28:30;;;;;;;;;;;22.70;50.40;;;;;;1647427;72;638;-68
2021/07/18 09:30:32;;;;;;;;;;;22.70;50.40;;;;;;1625496;72;749;-68
2021/07/18 09:32:35;;;;;;;;;;;22.60;50.30;;;;;;1646346;72;696;-69
2021/07/18 09:34:38;;;;;;;;;;;22.70;50.40;;;;;;1645444;72;1942;-69
2021/07/18 09:36:40;;;;;;;;;;;22.70;50.40;;;;;;1646693;72;839;-68
2021/07/18 09:38:42;;;;;;;;;;;22.70;50.40;;;;;;1649351;71;756;-68
2021/07/18 09:40:43;;;;;;;;;;;22.70;50.40;;;;;;1646353;72;780;-68
2021/07/18 09:42:46;;;;;;;;;;;22.60;50.30;;;;;;1610292;73;1160;-68
2021/07/18 09:44:48;;;;;;;;;;;22.70;50.40;;;;;;1646770;72;1086;-68
2021/07/18 09:46:50;;;;;;;;;;;22.60;50.40;;;;;;1651010;71;709;-68
2021/07/18 09:48:52;;;;;;;;;;;22.70;50.40;;;;;;1651410;72;754;-68
2021/07/18 09:50:54;;;;;;;;;;;22.80;50.40;;;;;;1642032;72;757;-68
2021/07/18 09:53:09;;;;;;;;;;;22.80;50.40;;;;;;1616695;72;1097;-69
2021/07/18 09:55:11;;;;;;;;;;;22.70;50.40;;;;;;1647494;71;1919;-68
2021/07/18 09:57:15;;;;;;;;;;;22.80;50.40;;;;;;1607651;72;1342;-68
2021/07/18 09:59:17;;;;;;;;;;;22.80;50.50;;;;;;1620592;71;1718;-68
2021/07/18 10:01:18;;;;;;;;;;;22.60;50.30;;;;;;1645459;72;771;-68
2021/07/18 10:03:23;;;;;;;;;;;22.60;50.40;;;;;;1652975;70;1139;-68
2021/07/18 10:05:29;;;;;;;;;;;22.70;50.40;;;;;;1649258;72;769;-68
2021/07/18 10:07:32;;;;;;;;;;;22.80;50.40;;;;;;1630932;72;654;-69
2021/07/18 10:09:35;;;;;;;;;;;22.70;50.50;;;;;;1647933;72;605;-68
2021/07/18 10:11:36;;;;;;;;;;;22.70;50.40;;;;;;1637421;71;886;-67
2021/07/18 10:13:38;;;;;;;;;;;22.60;50.40;;;;;;1654927;70;1075;-68
2021/07/18 10:15:40;;;;;;;;;;;22.60;50.30;;;;;;1650845;72;1930;-68
2021/07/18 10:17:42;;;;;;;;;;;22.70;50.40;;;;;;1645522;72;776;-68
2021/07/18 10:19:44;;;;;;;;;;;22.80;50.40;;;;;;1639588;72;761;-69
2021/07/18 10:21:46;;;;;;;;;;;22.60;50.40;;;;;;1649184;72;647;-65
2021/07/18 10:23:49;;;;;;;;;;;22.70;50.40;;;;;;1646387;72;1169;-69
2021/07/18 10:25:51;;;;;;;;;;;22.60;50.30;;;;;;1653425;72;757;-66
2021/07/18 10:27:53;;;;;;;;;;;22.60;50.30;;;;;;1645581;72;763;-68
2021/07/18 10:29:55;;;;;;;;;;;22.80;50.40;;;;;;1649081;72;714;-68
2021/07/18 10:31:57;;;;;;;;;;;22.80;50.40;;;;;;1651158;72;683;-68
2021/07/18 10:33:59;;;;;;;;;;;22.70;50.40;;;;;;1648393;72;1197;-68
2021/07/18 10:36:01;;;;;;;;;;;22.60;50.30;;;;;;1641165;72;1956;-68
2021/07/18 10:38:15;;;;;;;;;;;22.70;50.50;;;;;;1648265;72;754;-68
2021/07/18 10:40:25;;;;;;;;;;;22.60;50.30;;;;;;1631157;72;772;-68
2021/07/18 10:42:34;;;;;;;;;;;22.70;50.40;;;;;;1653989;72;777;-68
2021/07/18 10:44:37;;;;;;;;;;;22.60;50.40;;;;;;1644293;72;1134;-67
2021/07/18 10:46:43;;;;;;;;;;;22.80;50.50;;;;;;1648763;72;705;-68
2021/07/18 10:48:49;;;;;;;;;;;22.60;50.40;;;;;;1646944;71;678;-70
2021/07/18 10:50:51;;;;;;;;;;;22.70;50.50;;;;;;1648312;72;709;-68
2021/07/18 10:52:52;;;;;;;;;;;22.60;50.30;;;;;;1650178;72;696;-68
2021/07/18 10:54:54;;;;;;;;;;;22.60;50.30;;;;;;1623691;72;1949;-68
2021/07/18 10:56:56;;;;;;;;;;;22.70;50.50;;;;;;1644794;72;726;-68
2021/07/18 10:58:58;;;;;;;;;;;22.70;50.40;;;;;;1651121;72;632;-68
2021/07/18 11:01:00;;;;;;;;;;;22.60;50.40;;;;;;1645442;72;802;-69
2021/07/18 11:03:07;;;;;;;;;;;22.70;50.40;;;;;;1650841;70;1150;-69
2021/07/18 11:05:09;;;;;;;;;;;22.70;50.40;;;;;;1649256;72;1035;-68
2021/07/18 11:07:22;;;;;;;;;;;22.60;50.30;;;;;;1620370;72;1120;-68
2021/07/18 11:09:25;;;;;;;;;;;22.70;50.40;;;;;;1637353;72;663;-68
2021/07/18 11:11:46;;;;;;;;;;;22.70;50.50;;;;;;1647420;72;681;-68
2021/07/18 11:14:06;;;;;;;;;;;22.70;50.40;;;;;;1654878;70;1172;-68
2021/07/18 11:16:08;;;;;;;;;;;22.60;50.40;;;;;;1635144;72;1908;-68
2021/07/18 11:18:14;;;;;;;;;;;22.60;50.40;;;;;;1645544;72;766;-66
2021/07/18 11:20:16;;;;;;;;;;;22.60;50.40;;;;;;1640771;72;867;-68
2021/07/18 11:22:17;;;;;;;;;;;22.70;50.50;;;;;;1619607;72;1145;-69
2021/07/18 11:24:21;;;;;;;;;;;22.70;50.50;;;;;;1645256;72;1145;-67
2021/07/18 11:26:23;;;;;;;;;;;22.70;50.50;;;;;;1644482;72;1870;-69
2021/07/18 11:30:51;;;;;;;;;;;22.70;50.50;;;;;;1654731;72;874;-68
2021/07/18 11:32:53;;;;;;;;;;;22.70;50.50;;;;;;1648945;72;753;-65
2021/07/18 11:34:55;;;;;;;;;;;22.60;50.40;;;;;;1649978;72;1914;-68
2021/07/18 11:37:00;;;;;;;;;;;22.70;50.50;;;;;;1652923;71;788;-69
2021/07/18 11:39:01;;;;;;;;;;;22.70;50.40;;;;;;1649195;71;1672;-69
2021/07/18 11:41:20;;;;;;;;;;;22.80;50.40;;;;;;1646522;71;776;-69
2021/07/18 11:43:23;;;;;;;;;;;22.70;50.40;;;;;;1638103;70;1364;-68
2021/07/18 11:45:24;;;;;;;;;;;22.70;50.40;;;;;;1646758;72;747;-69
2021/07/18 11:47:28;;;;;;;;;;;22.70;50.50;;;;;;1634962;72;973;-68
2021/07/18 11:49:32;;;;;;;;;;;22.70;50.50;;;;;;1651337;72;769;-69
2021/07/18 11:51:35;;;;;;;;;;;22.60;50.30;;;;;;1648417;72;909;-69
2021/07/18 11:53:37;;;;;;;;;;;22.80;50.40;;;;;;1639056;71;1096;-68
2021/07/18 11:55:40;;;;;;;;;;;22.70;50.50;;;;;;1648926;71;1936;-68
2021/07/18 11:57:42;;;;;;;;;;;22.60;50.30;;;;;;1651351;71;2072;-68
2021/07/18 11:59:45;;;;;;;;;;;22.70;50.50;;;;;;1648419;72;732;-68
2021/07/18 12:01:49;;;;;;;;;;;22.70;50.50;;;;;;1645083;71;1934;-66
2021/07/18 12:03:51;;;;;;;;;;;22.80;50.40;;;;;;1649534;70;1178;-69
2021/07/18 12:05:53;;;;;;;;;;;22.70;50.50;;;;;;1646543;72;697;-69
2021/07/18 12:08:04;;;;;;;;;;;22.70;50.40;;;;;;1650727;72;765;-68
2021/07/18 12:10:08;;;;;;;;;;;22.60;50.40;;;;;;1650327;72;769;-68
2021/07/18 12:12:10;;;;;;;;;;;22.80;50.40;;;;;;1644055;72;1979;-69